createdAt,value
2022-10-26T00:01:06.973Z,11.60
2022-10-26T00:03:35.420Z,11.60
2022-10-26T00:06:06.541Z,11.60
2022-10-26T00:08:34.041Z,11.60
2022-10-26T00:11:00.946Z,11.70
2022-10-26T00:13:28.070Z,11.70
2022-10-26T00:15:55.577Z,11.80
2022-10-26T00:18:23.271Z,11.90
2022-10-26T00:20:50.570Z,11.90
2022-10-26T00:23:17.599Z,12.00
2022-10-26T00:25:45.055Z,12.00
2022-10-26T00:28:11.840Z,12.00
2022-10-26T00:30:40.028Z,11.90
2022-10-26T00:33:06.850Z,11.90
2022-10-26T00:35:45.579Z,11.90
2022-10-26T00:38:13.489Z,11.90
2022-10-26T00:40:40.548Z,11.80
2022-10-26T00:43:16.476Z,11.80
2022-10-26T00:45:44.878Z,11.70
2022-10-26T00:48:27.491Z,11.70
2022-10-26T00:50:56.459Z,11.60
2022-10-26T00:53:23.308Z,11.60
2022-10-26T00:55:52.528Z,11.50
2022-10-26T00:58:20.774Z,11.50
2022-10-26T01:00:48.478Z,11.40
2022-10-26T01:03:16.965Z,11.40
2022-10-26T01:05:46.252Z,11.30
2022-10-26T01:08:14.350Z,11.30
2022-10-26T01:10:42.873Z,11.30
2022-10-26T01:13:11.565Z,11.30
2022-10-26T01:15:44.157Z,11.30
2022-10-26T01:18:20.072Z,11.40
2022-10-26T01:21:17.617Z,11.40
2022-10-26T01:24:09.767Z,11.40
2022-10-26T01:27:04.309Z,11.40
2022-10-26T01:29:50.190Z,11.20
2022-10-26T01:32:30.486Z,11.20
2022-10-26T01:35:08.112Z,11.10
2022-10-26T01:37:39.196Z,11.00
2022-10-26T01:40:15.085Z,10.90
2022-10-26T01:42:46.942Z,10.70
2022-10-26T01:45:15.250Z,10.60
2022-10-26T01:47:43.595Z,10.60
2022-10-26T01:50:11.532Z,10.50
2022-10-26T01:52:38.476Z,10.70
2022-10-26T01:55:27.022Z,10.80
2022-10-26T01:57:57.451Z,10.90
2022-10-26T02:00:24.360Z,11.00
2022-10-26T02:03:16.002Z,11.20
2022-10-26T02:06:12.214Z,11.30
2022-10-26T02:09:04.202Z,11.40
2022-10-26T02:11:41.236Z,11.50
2022-10-26T02:14:28.306Z,11.60
2022-10-26T02:16:58.449Z,11.60
2022-10-26T02:19:31.366Z,11.70
2022-10-26T02:22:10.244Z,11.70
2022-10-26T02:24:39.828Z,11.70
2022-10-26T02:27:09.941Z,11.70
2022-10-26T02:29:39.066Z,11.70
2022-10-26T02:32:08.388Z,11.80
2022-10-26T02:34:38.391Z,11.80
2022-10-26T02:37:05.961Z,11.90
2022-10-26T02:39:35.124Z,11.90
2022-10-26T02:42:05.419Z,12.00
2022-10-26T02:44:41.696Z,12.10
2022-10-26T02:47:09.208Z,12.10
2022-10-26T02:49:36.628Z,12.10
2022-10-26T02:52:17.870Z,12.10
2022-10-26T02:54:54.303Z,12.10
2022-10-26T02:57:27.976Z,12.00
2022-10-26T02:59:56.796Z,12.00
2022-10-26T03:02:23.734Z,12.00
2022-10-26T03:04:51.603Z,11.90
2022-10-26T03:07:24.656Z,11.90
2022-10-26T03:09:51.854Z,11.90
2022-10-26T03:12:18.759Z,11.90
2022-10-26T03:14:45.638Z,12.00
2022-10-26T03:17:12.544Z,11.80
2022-10-26T03:19:39.304Z,11.80
2022-10-26T03:22:06.074Z,11.80
2022-10-26T03:24:32.870Z,11.70
2022-10-26T03:27:02.108Z,11.60
2022-10-26T03:29:29.399Z,11.60
2022-10-26T03:31:56.234Z,11.50
2022-10-26T03:34:23.105Z,11.40
2022-10-26T03:36:50.047Z,11.40
2022-10-26T03:39:16.961Z,11.30
2022-10-26T03:41:44.302Z,11.30
2022-10-26T03:44:11.206Z,11.30
2022-10-26T03:46:38.052Z,11.30
2022-10-26T03:49:04.942Z,11.30
2022-10-26T03:51:31.728Z,11.40
2022-10-26T03:53:58.733Z,11.40
2022-10-26T03:56:25.951Z,11.40
2022-10-26T03:58:52.884Z,11.50
2022-10-26T04:01:19.709Z,11.50
2022-10-26T04:03:46.575Z,11.40
2022-10-26T04:06:13.541Z,11.50
2022-10-26T04:08:40.639Z,11.50
2022-10-26T04:11:07.406Z,11.40
2022-10-26T04:13:34.243Z,11.50
2022-10-26T04:16:01.154Z,11.50
2022-10-26T04:18:28.002Z,11.50
2022-10-26T04:20:54.867Z,11.50
2022-10-26T04:23:22.678Z,11.60
2022-10-26T04:25:49.883Z,11.60
2022-10-26T04:28:16.795Z,11.60
2022-10-26T04:30:43.563Z,11.60
2022-10-26T04:33:10.503Z,11.70
2022-10-26T04:35:37.571Z,11.70
2022-10-26T04:38:06.224Z,11.60
2022-10-26T04:40:34.245Z,11.70
2022-10-26T04:43:01.202Z,11.60
2022-10-26T04:45:28.720Z,11.70
2022-10-26T04:48:07.335Z,11.60
2022-10-26T04:50:34.298Z,11.60
2022-10-26T04:53:04.979Z,11.60
2022-10-26T04:55:31.776Z,11.60
2022-10-26T04:58:01.123Z,11.50
2022-10-26T05:00:30.320Z,11.60
2022-10-26T05:03:07.905Z,11.60
2022-10-26T05:05:36.521Z,11.60
2022-10-26T05:08:04.651Z,11.70
2022-10-26T05:10:32.086Z,11.70
2022-10-26T05:13:00.689Z,11.80
2022-10-26T05:15:28.201Z,11.80
2022-10-26T05:18:03.452Z,11.90
2022-10-26T05:20:32.499Z,11.90
2022-10-26T05:23:01.340Z,11.90
2022-10-26T05:25:30.378Z,11.90
2022-10-26T05:28:01.685Z,11.90
2022-10-26T05:30:29.489Z,11.90
2022-10-26T05:32:57.627Z,11.90
2022-10-26T05:35:25.806Z,11.90
2022-10-26T05:37:53.677Z,11.80
2022-10-26T05:40:20.738Z,11.80
2022-10-26T05:42:47.876Z,11.80
2022-10-26T05:45:15.330Z,11.70
2022-10-26T05:47:44.944Z,11.60
2022-10-26T05:50:12.911Z,11.60
2022-10-26T05:52:44.462Z,11.60
2022-10-26T05:55:13.612Z,11.60
2022-10-26T05:57:41.118Z,11.50
2022-10-26T06:00:19.582Z,11.50
2022-10-26T06:02:58.303Z,11.50
2022-10-26T06:05:28.678Z,11.30
2022-10-26T06:07:55.754Z,11.20
2022-10-26T06:10:22.990Z,11.20
2022-10-26T06:12:50.623Z,11.10
2022-10-26T06:15:22.105Z,11.10
2022-10-26T06:18:31.019Z,11.10
2022-10-26T06:21:29.230Z,11.10
2022-10-26T06:24:16.230Z,11.10
2022-10-26T06:26:51.664Z,11.10
2022-10-26T06:29:43.968Z,11.10
2022-10-26T06:32:11.169Z,11.10
2022-10-26T06:34:44.098Z,11.10
2022-10-26T06:37:12.266Z,11.00
2022-10-26T06:39:44.869Z,11.10
2022-10-26T06:42:12.213Z,11.10
2022-10-26T06:44:39.502Z,11.20
2022-10-26T06:47:09.791Z,11.30
2022-10-26T06:49:49.632Z,11.40
2022-10-26T06:52:20.940Z,11.70
2022-10-26T06:54:53.445Z,12.20
2022-10-26T06:57:28.244Z,12.40
2022-10-26T07:00:00.722Z,12.30
2022-10-26T07:02:28.033Z,12.40
2022-10-26T07:04:55.268Z,12.40
2022-10-26T07:07:24.944Z,12.60
2022-10-26T07:09:52.156Z,12.80
2022-10-26T07:12:19.145Z,13.30
2022-10-26T07:14:45.952Z,14.00
2022-10-26T07:17:12.752Z,14.50
2022-10-26T07:19:40.581Z,14.60
2022-10-26T07:22:07.407Z,15.00
2022-10-26T07:24:34.384Z,15.20
2022-10-26T07:27:01.202Z,15.50
2022-10-26T07:29:28.171Z,16.00
2022-10-26T07:31:55.051Z,15.90
2022-10-26T07:34:21.999Z,14.90
2022-10-26T07:36:48.848Z,14.30
2022-10-26T07:39:15.731Z,13.90
2022-10-26T07:41:42.531Z,13.60
2022-10-26T07:44:09.439Z,13.60
2022-10-26T07:46:36.356Z,13.50
2022-10-26T07:49:03.171Z,13.50
2022-10-26T07:51:29.977Z,13.70
2022-10-26T07:53:56.773Z,13.70
2022-10-26T07:56:23.593Z,13.80
2022-10-26T07:58:53.116Z,14.10
2022-10-26T08:01:20.606Z,14.00
2022-10-26T08:03:47.715Z,13.70
2022-10-26T08:06:14.691Z,13.70
2022-10-26T08:08:44.999Z,13.70
2022-10-26T08:11:14.754Z,13.70
2022-10-26T08:13:41.605Z,13.90
2022-10-26T08:16:09.330Z,13.90
2022-10-26T08:18:36.203Z,14.00
2022-10-26T08:21:11.107Z,14.00
2022-10-26T08:23:39.477Z,14.10
2022-10-26T08:26:06.736Z,14.00
2022-10-26T08:28:33.851Z,14.00
2022-10-26T08:31:00.633Z,13.90
2022-10-26T08:33:27.410Z,14.00
2022-10-26T08:36:02.141Z,14.00
2022-10-26T08:38:29.026Z,14.00
2022-10-26T08:40:57.487Z,14.00
2022-10-26T08:43:37.532Z,13.90
2022-10-26T08:46:17.814Z,13.80
2022-10-26T08:48:49.248Z,13.80
2022-10-26T08:51:20.498Z,13.70
2022-10-26T08:54:01.861Z,13.80
2022-10-26T08:56:38.711Z,13.80
2022-10-26T08:59:26.855Z,13.90
2022-10-26T09:01:54.598Z,14.00
2022-10-26T09:04:27.607Z,14.10
2022-10-26T09:07:08.516Z,14.40
2022-10-26T09:09:59.071Z,14.50
2022-10-26T09:12:54.472Z,14.80
2022-10-26T09:15:59.387Z,15.00
2022-10-26T09:18:41.212Z,15.30
2022-10-26T09:21:29.353Z,15.40
2022-10-26T09:24:07.683Z,15.70
2022-10-26T09:26:57.458Z,16.10
2022-10-26T09:29:32.572Z,17.10
2022-10-26T09:32:01.880Z,18.70
2022-10-26T09:34:36.508Z,19.50
2022-10-26T09:37:13.871Z,20.00
2022-10-26T09:39:49.639Z,20.90
2022-10-26T09:42:26.103Z,21.10
2022-10-26T09:44:59.226Z,21.10
2022-10-26T09:47:34.866Z,21.20
2022-10-26T09:50:22.968Z,21.20
2022-10-26T09:52:49.992Z,20.90
2022-10-26T09:55:17.174Z,21.00
2022-10-26T09:57:50.322Z,21.50
2022-10-26T10:00:20.393Z,21.50
2022-10-26T10:02:53.369Z,21.10
2022-10-26T10:08:25.290Z,19.90
2022-10-26T10:11:12.634Z,19.60
2022-10-26T10:13:42.548Z,19.00
2022-10-26T10:16:23.802Z,18.50
2022-10-26T10:18:56.528Z,18.50
2022-10-26T10:21:39.396Z,18.20
2022-10-26T10:24:27.306Z,18.50
2022-10-26T10:27:17.854Z,19.10
2022-10-26T10:29:49.839Z,19.40
2022-10-26T10:32:17.765Z,19.30
2022-10-26T10:34:45.583Z,19.70
2022-10-26T10:37:41.589Z,20.10
2022-10-26T10:40:27.534Z,20.20
2022-10-26T10:43:06.896Z,20.30
2022-10-26T10:45:35.580Z,20.30
2022-10-26T10:48:16.280Z,20.00
2022-10-26T10:50:58.132Z,20.20
2022-10-26T10:53:37.235Z,20.50
2022-10-26T10:56:32.080Z,21.10
2022-10-26T10:59:25.620Z,22.00
2022-10-26T11:02:16.587Z,22.30
2022-10-26T11:05:13.835Z,22.40
2022-10-26T11:07:52.041Z,22.60
2022-10-26T11:10:21.814Z,22.90
2022-10-26T11:12:55.353Z,22.80
2022-10-26T11:15:30.239Z,22.80
2022-10-26T11:18:18.994Z,23.00
2022-10-26T11:20:53.886Z,23.30
2022-10-26T11:23:32.298Z,23.60
2022-10-26T11:26:14.969Z,23.70
2022-10-26T11:28:51.806Z,23.70
2022-10-26T11:31:27.485Z,23.80
2022-10-26T11:34:26.595Z,24.00
2022-10-26T11:37:03.165Z,23.50
2022-10-26T11:40:05.399Z,23.90
2022-10-26T11:42:41.652Z,24.30
2022-10-26T11:45:30.782Z,24.50
2022-10-26T11:48:31.117Z,24.60
2022-10-26T11:51:00.118Z,24.30
2022-10-26T11:53:35.997Z,23.40
2022-10-26T11:56:05.147Z,23.00
2022-10-26T11:58:33.175Z,22.20
2022-10-26T12:01:10.919Z,22.00
2022-10-26T12:03:45.513Z,21.90
2022-10-26T12:06:15.102Z,21.80
2022-10-26T12:08:47.299Z,21.40
2022-10-26T12:11:38.061Z,21.20
2022-10-26T12:14:32.423Z,21.20
2022-10-26T12:17:17.184Z,21.20
2022-10-26T12:19:55.119Z,21.40
2022-10-26T12:22:29.617Z,22.50
2022-10-26T12:25:15.328Z,23.00
2022-10-26T12:27:42.319Z,23.50
2022-10-26T12:30:12.146Z,23.10
2022-10-26T12:32:43.658Z,23.10
2022-10-26T12:35:31.341Z,23.10
2022-10-26T12:37:58.952Z,23.10
2022-10-26T12:40:34.544Z,23.00
2022-10-26T12:43:16.421Z,23.10
2022-10-26T12:45:45.686Z,22.90
2022-10-26T12:48:39.735Z,23.10
2022-10-26T12:51:22.291Z,23.30
2022-10-26T12:53:58.279Z,23.30
2022-10-26T12:56:49.716Z,23.20
2022-10-26T12:59:22.368Z,23.20
2022-10-26T13:02:30.499Z,23.50
2022-10-26T13:05:26.859Z,23.40
2022-10-26T13:08:02.773Z,23.50
2022-10-26T13:10:30.023Z,23.50
2022-10-26T13:13:00.343Z,23.80
2022-10-26T13:15:28.842Z,23.90
2022-10-26T13:18:18.196Z,23.90
2022-10-26T13:21:12.827Z,23.80
2022-10-26T13:23:45.185Z,23.90
2022-10-26T13:26:15.305Z,24.30
2022-10-26T13:28:52.773Z,24.40
2022-10-26T13:31:28.749Z,24.00
2022-10-26T13:34:02.291Z,23.80
2022-10-26T13:37:07.513Z,23.50
2022-10-26T13:39:40.440Z,23.40
2022-10-26T13:42:13.758Z,23.50
2022-10-26T13:45:10.221Z,23.60
2022-10-26T13:48:10.202Z,23.70
2022-10-26T13:50:51.689Z,23.40
2022-10-26T13:53:38.937Z,23.60
2022-10-26T13:56:16.631Z,23.90
2022-10-26T13:59:07.415Z,24.00
2022-10-26T14:01:34.423Z,24.10
2022-10-26T14:04:27.733Z,24.10
2022-10-26T14:06:55.271Z,24.40
2022-10-26T14:09:22.787Z,24.20
2022-10-26T14:11:52.924Z,24.20
2022-10-26T14:14:40.789Z,24.20
2022-10-26T14:17:07.591Z,24.20
2022-10-26T14:19:37.433Z,23.60
2022-10-26T14:22:05.239Z,23.40
2022-10-26T14:24:47.553Z,23.20
2022-10-26T14:27:20.225Z,23.30
2022-10-26T14:30:03.727Z,23.00
2022-10-26T14:32:36.764Z,22.80
2022-10-26T14:35:03.793Z,22.70
2022-10-26T14:37:50.524Z,22.60
2022-10-26T14:40:20.445Z,22.50
2022-10-26T14:42:54.846Z,22.30
2022-10-26T14:45:47.749Z,22.20
2022-10-26T14:48:30.038Z,22.20
2022-10-26T14:51:16.904Z,22.40
2022-10-26T14:53:52.257Z,22.20
2022-10-26T14:56:24.993Z,22.00
2022-10-26T14:58:51.892Z,21.70
2022-10-26T15:01:22.230Z,21.50
2022-10-26T15:04:19.655Z,21.60
2022-10-26T15:06:46.744Z,21.60
2022-10-26T15:09:38.503Z,21.40
2022-10-26T15:12:06.011Z,21.30
2022-10-26T15:14:34.454Z,21.10
2022-10-26T15:17:01.427Z,20.90
2022-10-26T15:19:28.712Z,20.90
2022-10-26T15:21:55.887Z,20.70
2022-10-26T15:24:35.898Z,20.50
2022-10-26T15:27:13.976Z,20.40
2022-10-26T15:29:50.170Z,20.20
2022-10-26T15:32:31.986Z,20.10
2022-10-26T15:35:11.591Z,19.80
2022-10-26T15:37:39.360Z,19.50
2022-10-26T15:40:09.248Z,19.30
2022-10-26T15:42:38.241Z,19.10
2022-10-26T15:45:21.118Z,18.80
2022-10-26T15:47:49.260Z,18.60
2022-10-26T15:50:22.101Z,18.30
2022-10-26T15:52:49.636Z,18.10
2022-10-26T15:55:17.620Z,17.80
2022-10-26T15:57:45.007Z,17.70
2022-10-26T16:00:17.533Z,17.40
2022-10-26T16:02:45.350Z,17.20
2022-10-26T16:05:15.953Z,17.00
2022-10-26T16:07:45.264Z,16.80
2022-10-26T16:10:38.714Z,16.60
2022-10-26T16:13:06.259Z,16.40
2022-10-26T16:15:33.027Z,16.20
2022-10-26T16:17:59.779Z,16.00
2022-10-26T16:20:28.408Z,15.80
2022-10-26T16:23:01.058Z,15.80
2022-10-26T16:25:27.907Z,15.70
2022-10-26T16:27:55.570Z,15.50
2022-10-26T16:30:25.837Z,15.30
2022-10-26T16:32:55.020Z,15.10
2022-10-26T16:35:21.769Z,15.00
2022-10-26T16:37:48.634Z,15.00
2022-10-26T16:40:15.558Z,14.80
2022-10-26T16:42:44.018Z,14.90
2022-10-26T16:45:12.596Z,14.90
2022-10-26T16:47:40.210Z,14.80
2022-10-26T16:50:09.185Z,14.60
2022-10-26T16:52:37.496Z,14.50
2022-10-26T16:55:05.918Z,14.50
2022-10-26T16:57:33.403Z,14.60
2022-10-26T17:00:00.188Z,14.70
2022-10-26T17:02:27.067Z,14.70
2022-10-26T17:04:54.017Z,14.60
2022-10-26T17:07:20.810Z,14.50
2022-10-26T17:09:47.605Z,14.50
2022-10-26T17:12:14.546Z,14.40
2022-10-26T17:14:41.385Z,14.40
2022-10-26T17:17:08.119Z,14.30
2022-10-26T17:19:35.918Z,14.30
2022-10-26T17:22:05.060Z,14.20
2022-10-26T17:24:34.864Z,14.20
2022-10-26T17:27:01.771Z,14.20
2022-10-26T17:29:29.040Z,14.10
2022-10-26T17:31:55.920Z,13.90
2022-10-26T17:34:22.858Z,13.70
2022-10-26T17:36:49.819Z,13.60
2022-10-26T17:39:16.764Z,13.40
2022-10-26T17:41:43.585Z,13.30
2022-10-26T17:44:10.401Z,13.20
2022-10-26T17:46:37.306Z,13.10
2022-10-26T17:49:04.172Z,13.00
2022-10-26T17:51:31.279Z,12.90
2022-10-26T17:53:59.275Z,12.80
2022-10-26T17:56:31.694Z,12.70
2022-10-26T17:59:00.870Z,12.80
2022-10-26T18:01:28.728Z,12.90
2022-10-26T18:03:55.934Z,12.90
2022-10-26T18:06:23.475Z,12.90
2022-10-26T18:08:50.714Z,12.80
2022-10-26T18:11:26.966Z,12.80
2022-10-26T18:13:55.388Z,12.80
2022-10-26T18:16:23.552Z,12.60
2022-10-26T18:19:00.313Z,12.50
2022-10-26T18:21:29.546Z,12.50
2022-10-26T18:23:56.366Z,12.50
2022-10-26T18:26:29.042Z,12.40
2022-10-26T18:29:00.722Z,12.40
2022-10-26T18:31:30.054Z,12.20
2022-10-26T18:33:59.278Z,12.10
2022-10-26T18:36:27.669Z,12.00
2022-10-26T18:38:55.068Z,11.90
2022-10-26T18:41:24.430Z,11.90
2022-10-26T18:43:53.434Z,11.90
2022-10-26T18:46:23.982Z,11.80
2022-10-26T18:48:51.847Z,11.90
2022-10-26T18:51:21.359Z,11.90
2022-10-26T18:53:48.721Z,12.00
2022-10-26T18:56:20.214Z,11.90
2022-10-26T18:58:49.247Z,11.80
2022-10-26T19:01:19.537Z,11.80
2022-10-26T19:03:47.943Z,11.90
2022-10-26T19:06:18.918Z,12.00
2022-10-26T19:08:46.492Z,12.10
2022-10-26T19:11:15.698Z,12.10
2022-10-26T19:13:42.808Z,12.00
2022-10-26T19:16:21.931Z,12.10
2022-10-26T19:18:56.392Z,12.20
2022-10-26T19:21:24.438Z,12.20
2022-10-26T19:23:56.563Z,12.10
2022-10-26T19:26:28.715Z,12.20
2022-10-26T19:29:03.514Z,12.10
2022-10-26T19:31:32.544Z,12.20
2022-10-26T19:34:00.191Z,12.10
2022-10-26T19:36:27.863Z,12.10
2022-10-26T19:38:55.820Z,12.20
2022-10-26T19:41:24.009Z,12.30
2022-10-26T19:43:51.104Z,12.20
2022-10-26T19:46:21.219Z,12.00
2022-10-26T19:48:50.026Z,11.80
2022-10-26T19:51:17.544Z,11.60
2022-10-26T19:53:44.534Z,11.70
2022-10-26T19:56:17.783Z,11.90
2022-10-26T19:58:45.237Z,12.00
2022-10-26T20:01:20.951Z,12.00
2022-10-26T20:03:48.205Z,11.90
2022-10-26T20:06:15.753Z,11.90
2022-10-26T20:08:45.015Z,11.90
2022-10-26T20:11:15.555Z,11.90
2022-10-26T20:13:44.585Z,11.90
2022-10-26T20:16:12.178Z,11.80
2022-10-26T20:18:43.934Z,11.90
2022-10-26T20:21:14.539Z,11.80
2022-10-26T20:23:41.541Z,11.70
2022-10-26T20:26:08.729Z,11.50
2022-10-26T20:28:35.787Z,11.30
2022-10-26T20:31:02.778Z,11.20
2022-10-26T20:33:29.831Z,11.20
2022-10-26T20:36:00.521Z,11.20
2022-10-26T20:38:27.834Z,11.20
2022-10-26T20:40:59.532Z,11.20
2022-10-26T20:43:27.695Z,11.00
2022-10-26T20:45:56.176Z,10.90
2022-10-26T20:48:23.761Z,10.90
2022-10-26T20:50:58.278Z,10.80
2022-10-26T20:53:35.408Z,10.80
2022-10-26T20:56:10.847Z,10.90
2022-10-26T20:58:49.415Z,10.90
2022-10-26T21:01:22.421Z,10.80
2022-10-26T21:03:49.319Z,10.80
2022-10-26T21:06:16.231Z,10.60
2022-10-26T21:08:43.103Z,10.60
2022-10-26T21:11:10.103Z,10.80
2022-10-26T21:13:36.931Z,11.00
2022-10-26T21:16:05.435Z,11.00
2022-10-26T21:18:33.335Z,10.80
2022-10-26T21:21:00.881Z,10.70
2022-10-26T21:23:31.633Z,10.60
2022-10-26T21:25:58.724Z,10.60
2022-10-26T21:28:26.856Z,10.50
2022-10-26T21:30:53.821Z,10.60
2022-10-26T21:33:22.712Z,10.80
2022-10-26T21:36:03.503Z,10.80
2022-10-26T21:38:31.876Z,10.80
2022-10-26T21:41:13.758Z,10.60
2022-10-26T21:43:42.650Z,10.50
2022-10-26T21:46:10.157Z,10.50
2022-10-26T21:48:37.036Z,10.50
2022-10-26T21:51:06.155Z,10.40
2022-10-26T21:53:33.139Z,10.40
2022-10-26T21:56:05.608Z,10.50
2022-10-26T21:58:32.572Z,10.40
2022-10-26T22:01:11.154Z,10.40
2022-10-26T22:03:39.761Z,10.40
2022-10-26T22:06:08.534Z,10.30
2022-10-26T22:08:36.650Z,10.20
2022-10-26T22:11:15.596Z,10.20
2022-10-26T22:13:44.352Z,10.20
2022-10-26T22:16:14.500Z,10.10
2022-10-26T22:18:45.552Z,10.00
2022-10-26T22:21:13.815Z,10.10
2022-10-26T22:23:42.211Z,10.20
2022-10-26T22:26:10.868Z,10.20
2022-10-26T22:28:42.597Z,10.20
2022-10-26T22:31:16.219Z,10.20
2022-10-26T22:33:43.202Z,10.20
2022-10-26T22:36:15.426Z,10.20
2022-10-26T22:38:42.348Z,10.10
2022-10-26T22:41:12.246Z,10.20
2022-10-26T22:43:39.091Z,10.20
2022-10-26T22:46:05.919Z,10.20
2022-10-26T22:48:33.932Z,10.20
2022-10-26T22:51:06.275Z,10.30
2022-10-26T22:53:33.263Z,10.30
2022-10-26T22:56:00.979Z,10.40
2022-10-26T22:58:28.141Z,10.50
2022-10-26T23:01:02.979Z,10.70
2022-10-26T23:03:30.120Z,10.60
2022-10-26T23:05:57.953Z,10.50
2022-10-26T23:08:24.914Z,10.30
2022-10-26T23:10:52.733Z,10.10
2022-10-26T23:13:19.683Z,9.90
2022-10-26T23:15:46.540Z,9.90
2022-10-26T23:18:13.335Z,9.90
2022-10-26T23:20:40.282Z,9.90
2022-10-26T23:23:07.086Z,9.80
2022-10-26T23:25:33.918Z,9.80
2022-10-26T23:28:00.797Z,9.90
2022-10-26T23:30:27.640Z,9.80
2022-10-26T23:32:56.236Z,9.70
2022-10-26T23:35:23.472Z,9.80
2022-10-26T23:37:50.268Z,9.70
2022-10-26T23:40:17.208Z,9.80
2022-10-26T23:42:44.052Z,9.90
2022-10-26T23:45:11.071Z,9.90
2022-10-26T23:47:37.831Z,9.80
2022-10-26T23:50:05.069Z,9.80
2022-10-26T23:52:32.178Z,9.70
2022-10-26T23:54:59.138Z,9.60
2022-10-26T23:57:25.915Z,9.50
2022-10-26T23:59:53.250Z,9.50
